createdAt,value
2023-04-15T00:00:04.111Z,0.000000
2023-04-15T00:01:01.016Z,0.000000
2023-04-15T00:02:01.192Z,0.000000
2023-04-15T00:03:01.147Z,0.000000
2023-04-15T00:04:01.195Z,0.000000
2023-04-15T00:05:03.518Z,4.000000
2023-04-15T00:06:01.105Z,4.000000
2023-04-15T00:07:01.035Z,4.000000
2023-04-15T00:08:01.125Z,6.500000
2023-04-15T00:09:01.471Z,6.500000
2023-04-15T00:10:04.141Z,6.500000
2023-04-15T00:11:01.089Z,6.500000
2023-04-15T00:12:01.156Z,4.000000
2023-04-15T00:13:01.088Z,4.000000
2023-04-15T00:14:01.177Z,4.000000
2023-04-15T00:15:05.187Z,0.000000
2023-04-15T00:16:01.165Z,0.000000
2023-04-15T00:17:01.163Z,0.000000
2023-04-15T00:18:01.234Z,0.000000
2023-04-15T00:19:01.347Z,0.000000
2023-04-15T00:20:04.682Z,0.000000
2023-04-15T00:21:01.175Z,0.000000
2023-04-15T00:22:01.217Z,0.000000
2023-04-15T00:23:01.161Z,0.000000
2023-04-15T00:24:01.240Z,0.000000
2023-04-15T00:25:03.746Z,7.100000
2023-04-15T00:26:01.227Z,7.100000
2023-04-15T00:27:01.214Z,5.700000
2023-04-15T00:28:01.229Z,5.700000
2023-04-15T00:29:01.507Z,5.700000
2023-04-15T00:30:04.330Z,0.000000
2023-04-15T00:31:00.271Z,0.000000
2023-04-15T00:32:00.282Z,0.000000
2023-04-15T00:33:00.304Z,0.000000
2023-04-15T00:34:00.293Z,0.000000
2023-04-15T00:35:02.850Z,0.000000
2023-04-15T00:36:00.307Z,0.000000
2023-04-15T00:37:00.220Z,0.000000
2023-04-15T00:38:00.315Z,4.300000
2023-04-15T00:39:00.519Z,4.300000
2023-04-15T00:40:03.380Z,4.300000
2023-04-15T00:41:00.247Z,4.300000
2023-04-15T00:42:00.327Z,4.300000
2023-04-15T00:43:00.259Z,0.000000
2023-04-15T00:44:00.339Z,0.000000
2023-04-15T00:45:03.531Z,5.000000
2023-04-15T00:46:00.384Z,5.000000
2023-04-15T00:47:00.285Z,5.000000
2023-04-15T00:48:00.507Z,0.000000
2023-04-15T00:49:00.542Z,0.000000
2023-04-15T00:50:03.166Z,0.000000
2023-04-15T00:51:00.343Z,5.200000
2023-04-15T00:52:00.384Z,5.200000
2023-04-15T00:53:00.295Z,0.000000
2023-04-15T00:54:00.401Z,0.000000
2023-04-15T00:55:03.149Z,0.000000
2023-04-15T00:56:00.372Z,0.000000
2023-04-15T00:57:00.337Z,0.000000
2023-04-15T00:58:00.413Z,0.000000
2023-04-15T00:59:00.519Z,0.000000
2023-04-15T01:00:03.297Z,0.000000
2023-04-15T01:01:00.349Z,0.000000
2023-04-15T01:02:00.535Z,0.000000
2023-04-15T01:03:00.617Z,0.000000
2023-04-15T01:04:00.568Z,0.000000
2023-04-15T01:05:03.445Z,0.000000
2023-04-15T01:06:02.844Z,0.000000
2023-04-15T01:07:00.357Z,0.000000
2023-04-15T01:08:00.447Z,4.000000
2023-04-15T01:09:00.877Z,4.000000
2023-04-15T01:10:03.439Z,4.000000
2023-04-15T01:11:00.390Z,5.600000
2023-04-15T01:12:00.474Z,5.600000
2023-04-15T01:13:00.372Z,5.600000
2023-04-15T01:14:00.458Z,5.600000
2023-04-15T01:15:03.487Z,5.600000
2023-04-15T01:16:00.554Z,4.800000
2023-04-15T01:17:00.405Z,4.800000
2023-04-15T01:18:00.598Z,5.400000
2023-04-15T01:19:00.557Z,5.400000
2023-04-15T01:20:03.583Z,5.400000
2023-04-15T01:21:00.503Z,5.400000
2023-04-15T01:22:00.520Z,5.400000
2023-04-15T01:23:00.436Z,5.400000
2023-04-15T01:24:00.534Z,0.000000
2023-04-15T01:25:03.152Z,0.000000
2023-04-15T01:26:00.507Z,5.500000
2023-04-15T01:27:00.492Z,5.500000
2023-04-15T01:28:00.505Z,5.500000
2023-04-15T01:29:00.782Z,4.300000
2023-04-15T01:30:03.934Z,4.300000
2023-04-15T01:31:00.494Z,0.000000
2023-04-15T01:32:00.549Z,0.000000
2023-04-15T01:33:00.630Z,0.000000
2023-04-15T01:34:00.575Z,0.000000
2023-04-15T01:35:03.032Z,0.000000
2023-04-15T01:36:00.593Z,0.000000
2023-04-15T01:37:00.504Z,0.000000
2023-04-15T01:38:00.607Z,0.000000
2023-04-15T01:39:00.891Z,0.000000
2023-04-15T01:40:04.509Z,0.000000
2023-04-15T01:41:00.568Z,4.400000
2023-04-15T01:42:00.682Z,4.400000
2023-04-15T01:43:00.560Z,4.400000
2023-04-15T01:44:00.640Z,5.500000
2023-04-15T01:45:03.182Z,5.500000
2023-04-15T01:46:00.662Z,4.200000
2023-04-15T01:47:00.641Z,4.200000
2023-04-15T01:48:00.702Z,4.200000
2023-04-15T01:49:00.771Z,4.700000
2023-04-15T01:50:03.525Z,4.700000
2023-04-15T01:51:00.619Z,5.300000
2023-04-15T01:52:00.686Z,5.300000
2023-04-15T01:53:00.604Z,5.300000
2023-04-15T01:54:00.704Z,5.300000
2023-04-15T01:55:03.219Z,5.300000
2023-04-15T01:56:00.725Z,6.300000
2023-04-15T01:57:00.665Z,6.300000
2023-04-15T01:58:00.712Z,6.300000
2023-04-15T01:59:00.855Z,6.300000
2023-04-15T02:00:04.132Z,6.300000
2023-04-15T02:01:00.698Z,6.000000
2023-04-15T02:02:00.761Z,6.000000
2023-04-15T02:03:00.780Z,4.100000
2023-04-15T02:04:00.788Z,4.100000
2023-04-15T02:05:03.153Z,4.100000
2023-04-15T02:06:00.783Z,4.700000
2023-04-15T02:07:00.718Z,4.700000
2023-04-15T02:08:00.812Z,4.700000
2023-04-15T02:09:00.945Z,6.800000
2023-04-15T02:10:04.065Z,6.800000
2023-04-15T02:11:00.707Z,6.800000
2023-04-15T02:12:00.817Z,6.800000
2023-04-15T02:13:00.733Z,6.600000
2023-04-15T02:14:00.831Z,6.600000
2023-04-15T02:15:03.353Z,6.600000
2023-04-15T02:16:00.804Z,8.200000
2023-04-15T02:17:00.755Z,8.200000
2023-04-15T02:18:00.974Z,8.200000
2023-04-15T02:19:01.080Z,7.600000
2023-04-15T02:20:03.761Z,7.600000
2023-04-15T02:21:00.801Z,7.600000
2023-04-15T02:22:00.857Z,5.200000
2023-04-15T02:23:00.776Z,5.200000
2023-04-15T02:24:00.861Z,6.000000
2023-04-15T02:25:03.260Z,6.000000
2023-04-15T02:26:00.933Z,5.400000
2023-04-15T02:27:00.811Z,5.400000
2023-04-15T02:28:00.874Z,5.400000
2023-04-15T02:29:01.108Z,4.900000
2023-04-15T02:30:03.894Z,4.900000
2023-04-15T02:31:00.817Z,4.900000
2023-04-15T02:32:01.055Z,7.500000
2023-04-15T02:33:00.887Z,7.500000
2023-04-15T02:34:00.889Z,7.500000
2023-04-15T02:35:04.213Z,7.500000
2023-04-15T02:36:00.950Z,7.000000
2023-04-15T02:37:00.853Z,7.000000
2023-04-15T02:38:00.960Z,7.000000
2023-04-15T02:39:01.189Z,8.000000
2023-04-15T02:40:03.665Z,8.000000
2023-04-15T02:41:00.888Z,8.000000
2023-04-15T02:42:00.982Z,5.500000
2023-04-15T02:43:00.899Z,5.500000
2023-04-15T02:44:00.975Z,0.000000
2023-04-15T02:45:04.980Z,0.000000
2023-04-15T02:46:01.009Z,0.000000
2023-04-15T02:47:00.909Z,0.000000
2023-04-15T02:48:01.006Z,0.000000
2023-04-15T02:49:01.156Z,5.100000
2023-04-15T02:50:04.010Z,5.100000
2023-04-15T02:51:00.928Z,5.100000
2023-04-15T02:52:01.011Z,5.100000
2023-04-15T02:53:00.926Z,5.100000
2023-04-15T02:54:01.025Z,5.800000
2023-04-15T02:55:03.385Z,5.800000
2023-04-15T02:56:01.038Z,5.800000
2023-04-15T02:57:00.944Z,8.100000
2023-04-15T02:58:01.036Z,8.100000
2023-04-15T02:59:01.242Z,8.100000
2023-04-15T03:00:04.092Z,8.100000
2023-04-15T03:01:01.009Z,8.100000
2023-04-15T03:02:01.215Z,4.900000
2023-04-15T03:03:01.065Z,4.900000
2023-04-15T03:04:01.201Z,4.900000
2023-04-15T03:05:03.439Z,0.000000
2023-04-15T03:06:01.087Z,0.000000
2023-04-15T03:07:01.020Z,0.000000
2023-04-15T03:08:01.196Z,0.000000
2023-04-15T03:09:01.174Z,0.000000
2023-04-15T03:10:04.017Z,0.000000
2023-04-15T03:11:01.029Z,0.000000
2023-04-15T03:12:01.134Z,0.000000
2023-04-15T03:13:01.050Z,0.000000
2023-04-15T03:14:01.130Z,0.000000
2023-04-15T03:15:03.689Z,0.000000
2023-04-15T03:16:01.220Z,0.000000
2023-04-15T03:17:01.054Z,0.000000
2023-04-15T03:18:01.182Z,0.000000
2023-04-15T03:19:01.384Z,4.600000
2023-04-15T03:20:04.074Z,4.600000
2023-04-15T03:21:01.080Z,4.600000
2023-04-15T03:22:01.153Z,8.900000
2023-04-15T03:23:01.067Z,8.900000
2023-04-15T03:24:01.148Z,8.900000
2023-04-15T03:25:03.611Z,7.900000
2023-04-15T03:26:01.253Z,7.900000
2023-04-15T03:27:01.115Z,4.900000
2023-04-15T03:28:01.168Z,4.900000
2023-04-15T03:29:01.466Z,5.000000
2023-04-15T03:30:05.116Z,5.000000
2023-04-15T03:31:01.207Z,5.000000
2023-04-15T03:32:01.231Z,5.800000
2023-04-15T03:33:01.256Z,5.800000
2023-04-15T03:34:01.209Z,5.800000
2023-04-15T03:35:03.637Z,7.600000
2023-04-15T03:36:01.242Z,7.600000
2023-04-15T03:37:01.149Z,7.600000
2023-04-15T03:38:01.237Z,7.600000
2023-04-15T03:39:01.440Z,7.600000
2023-04-15T03:40:04.249Z,10.600000
2023-04-15T03:41:00.186Z,10.600000
2023-04-15T03:42:00.289Z,10.600000
2023-04-15T03:43:00.202Z,10.600000
2023-04-15T03:44:00.311Z,10.600000
2023-04-15T03:45:02.917Z,10.600000
2023-04-15T03:46:01.927Z,10.600000
2023-04-15T03:47:00.234Z,7.600000
2023-04-15T03:48:11.436Z,7.600000
2023-04-15T03:49:00.537Z,7.600000
2023-04-15T03:50:03.370Z,6.300000
2023-04-15T03:51:00.251Z,6.300000
2023-04-15T03:52:00.328Z,6.300000
2023-04-15T03:53:00.249Z,6.300000
2023-04-15T03:54:00.365Z,6.300000
2023-04-15T03:55:02.768Z,4.000000
2023-04-15T03:56:00.373Z,4.000000
2023-04-15T03:57:00.297Z,6.400000
2023-04-15T03:58:00.373Z,6.400000
2023-04-15T03:59:00.578Z,6.400000
2023-04-15T04:00:03.412Z,7.300000
2023-04-15T04:01:00.296Z,7.300000
2023-04-15T04:02:00.553Z,0.000000
2023-04-15T04:03:00.471Z,0.000000
2023-04-15T04:04:00.428Z,0.000000
2023-04-15T04:05:02.893Z,0.000000
2023-04-15T04:06:00.412Z,0.000000
2023-04-15T04:07:00.327Z,0.000000
2023-04-15T04:08:00.396Z,0.000000
2023-04-15T04:09:00.550Z,0.000000
2023-04-15T04:10:03.372Z,4.600000
2023-04-15T04:11:00.356Z,4.600000
2023-04-15T04:12:00.456Z,4.600000
2023-04-15T04:13:00.353Z,4.600000
2023-04-15T04:14:00.456Z,4.600000
2023-04-15T04:15:03.051Z,4.000000
2023-04-15T04:16:00.500Z,4.000000
2023-04-15T04:17:00.452Z,4.000000
2023-04-15T04:18:00.522Z,6.800000
2023-04-15T04:19:00.540Z,6.800000
2023-04-15T04:20:03.551Z,6.800000
2023-04-15T04:21:00.393Z,6.800000
2023-04-15T04:22:00.460Z,6.800000
2023-04-15T04:23:00.391Z,6.600000
2023-04-15T04:24:00.483Z,6.600000
2023-04-15T04:25:04.094Z,6.200000
2023-04-15T04:26:00.519Z,6.200000
2023-04-15T04:27:00.440Z,6.200000
2023-04-15T04:28:00.503Z,4.000000
2023-04-15T04:29:00.672Z,4.000000
2023-04-15T04:30:03.241Z,4.000000
2023-04-15T04:31:00.469Z,0.000000
2023-04-15T04:32:00.674Z,0.000000
2023-04-15T04:33:00.621Z,0.000000
2023-04-15T04:34:00.562Z,0.000000
2023-04-15T04:35:03.471Z,0.000000
2023-04-15T04:36:00.579Z,0.000000
2023-04-15T04:37:00.493Z,0.000000
2023-04-15T04:38:00.578Z,0.000000
2023-04-15T04:39:00.828Z,0.000000
2023-04-15T04:40:03.380Z,5.000000
2023-04-15T04:41:00.533Z,5.000000
2023-04-15T04:42:00.636Z,5.000000
2023-04-15T04:43:00.541Z,4.600000
2023-04-15T04:44:00.628Z,4.600000
2023-04-15T04:45:03.655Z,4.000000
2023-04-15T04:46:00.715Z,4.000000
2023-04-15T04:47:00.576Z,4.000000
2023-04-15T04:48:00.731Z,5.700000
2023-04-15T04:49:00.737Z,5.700000
2023-04-15T04:50:03.505Z,5.700000
2023-04-15T04:51:00.601Z,5.700000
2023-04-15T04:52:00.671Z,5.700000
2023-04-15T04:53:00.597Z,4.000000
2023-04-15T04:54:02.419Z,4.000000
2023-04-15T04:55:03.439Z,4.000000
2023-04-15T04:56:00.716Z,6.000000
2023-04-15T04:57:00.621Z,6.000000
2023-04-15T04:58:00.687Z,10.000000
2023-04-15T04:59:00.852Z,10.000000
2023-04-15T05:00:04.056Z,10.000000
2023-04-15T05:01:00.665Z,10.000000
2023-04-15T05:02:00.941Z,10.000000
2023-04-15T05:03:01.017Z,5.500000
2023-04-15T05:04:00.942Z,5.500000
2023-04-15T05:05:03.426Z,5.500000
2023-04-15T05:06:00.803Z,5.500000
2023-04-15T05:07:00.711Z,5.500000
2023-04-15T05:08:00.788Z,4.000000
2023-04-15T05:09:01.021Z,4.000000
2023-04-15T05:10:03.780Z,0.000000
2023-04-15T05:11:00.731Z,0.000000
2023-04-15T05:12:00.824Z,0.000000
2023-04-15T05:13:00.752Z,4.800000
2023-04-15T05:14:01.033Z,4.800000
2023-04-15T05:15:03.232Z,4.800000
2023-04-15T05:16:00.913Z,0.000000
2023-04-15T05:17:00.769Z,0.000000
2023-04-15T05:18:00.890Z,0.000000
2023-04-15T05:19:01.020Z,0.000000
2023-04-15T05:20:05.179Z,0.000000
2023-04-15T05:21:00.813Z,0.000000
2023-04-15T05:22:00.907Z,0.000000
2023-04-15T05:23:00.824Z,0.000000
2023-04-15T05:24:00.920Z,0.000000
2023-04-15T05:25:03.388Z,0.000000
2023-04-15T05:26:00.918Z,0.000000
2023-04-15T05:27:00.842Z,0.000000
2023-04-15T05:28:00.911Z,0.000000
2023-04-15T05:29:01.204Z,0.000000
2023-04-15T05:30:04.212Z,0.000000
2023-04-15T05:31:00.858Z,0.000000
2023-04-15T05:32:00.947Z,0.000000
2023-04-15T05:33:00.894Z,0.000000
2023-04-15T05:34:00.936Z,0.000000
2023-04-15T05:35:03.449Z,0.000000
2023-04-15T05:36:00.965Z,0.000000
2023-04-15T05:37:00.885Z,0.000000
2023-04-15T05:38:01.017Z,0.000000
2023-04-15T05:39:01.311Z,0.000000
2023-04-15T05:40:05.515Z,0.000000
2023-04-15T05:41:00.911Z,0.000000
2023-04-15T05:42:00.988Z,0.000000
2023-04-15T05:43:00.896Z,0.000000
2023-04-15T05:44:01.003Z,0.000000
2023-04-15T05:45:03.576Z,0.000000
2023-04-15T05:46:01.053Z,0.000000
2023-04-15T05:47:00.935Z,0.000000
2023-04-15T05:48:01.054Z,0.000000
2023-04-15T05:49:01.170Z,4.000000
2023-04-15T05:50:04.407Z,4.000000
2023-04-15T05:51:00.959Z,4.000000
2023-04-15T05:52:01.028Z,4.100000
2023-04-15T05:53:00.963Z,4.100000
2023-04-15T05:54:01.065Z,5.400000
2023-04-15T05:55:03.438Z,5.400000
2023-04-15T05:56:01.062Z,5.400000
2023-04-15T05:57:00.974Z,5.400000
2023-04-15T05:58:01.051Z,5.400000
2023-04-15T05:59:01.154Z,4.100000
2023-04-15T06:00:05.081Z,4.100000
2023-04-15T06:01:01.121Z,4.100000
2023-04-15T06:02:01.213Z,0.000000
2023-04-15T06:03:01.283Z,0.000000
2023-04-15T06:04:01.252Z,0.000000
2023-04-15T06:05:04.137Z,0.000000
2023-04-15T06:06:01.131Z,0.000000
2023-04-15T06:07:01.053Z,0.000000
2023-04-15T06:08:01.160Z,0.000000
2023-04-15T06:09:01.334Z,4.300000
2023-04-15T06:10:04.167Z,4.300000
2023-04-15T06:11:01.054Z,4.300000
2023-04-15T06:12:01.143Z,4.000000
2023-04-15T06:13:01.066Z,4.000000
2023-04-15T06:14:01.483Z,4.000000
2023-04-15T06:15:06.027Z,4.000000
2023-04-15T06:16:01.205Z,4.000000
2023-04-15T06:17:01.107Z,0.000000
2023-04-15T06:18:01.187Z,0.000000
2023-04-15T06:19:01.349Z,0.000000
2023-04-15T06:20:05.463Z,0.000000
2023-04-15T06:21:01.126Z,0.000000
2023-04-15T06:22:01.187Z,6.200000
2023-04-15T06:23:01.153Z,6.200000
2023-04-15T06:24:01.257Z,6.200000
2023-04-15T06:25:04.058Z,6.200000
2023-04-15T06:26:01.261Z,6.200000
2023-04-15T06:27:01.158Z,5.300000
2023-04-15T06:28:01.219Z,5.300000
2023-04-15T06:29:01.421Z,5.300000
2023-04-15T06:30:04.065Z,5.300000
2023-04-15T06:31:01.159Z,5.300000
2023-04-15T06:32:01.283Z,6.700000
2023-04-15T06:33:01.221Z,6.700000
2023-04-15T06:34:00.263Z,6.700000
2023-04-15T06:35:03.028Z,6.700000
2023-04-15T06:36:00.285Z,6.700000
2023-04-15T06:37:00.219Z,6.700000
2023-04-15T06:38:00.294Z,6.700000
2023-04-15T06:39:00.412Z,6.200000
2023-04-15T06:40:03.228Z,6.200000
2023-04-15T06:41:00.241Z,6.700000
2023-04-15T06:42:01.456Z,6.700000
2023-04-15T06:43:00.236Z,6.700000
2023-04-15T06:44:00.337Z,6.700000
2023-04-15T06:45:02.789Z,6.700000
2023-04-15T06:46:00.387Z,6.700000
2023-04-15T06:47:00.277Z,6.700000
2023-04-15T06:48:00.607Z,6.700000
2023-04-15T06:49:00.482Z,5.700000
2023-04-15T06:50:03.442Z,5.700000
2023-04-15T06:51:00.294Z,6.500000
2023-04-15T06:52:00.371Z,6.500000
2023-04-15T06:53:00.281Z,6.500000
2023-04-15T06:54:00.394Z,8.300000
2023-04-15T06:55:02.844Z,8.300000
2023-04-15T06:56:00.381Z,8.300000
2023-04-15T06:57:00.347Z,6.700000
2023-04-15T06:58:00.403Z,6.700000
2023-04-15T06:59:00.495Z,8.500000
2023-04-15T07:00:03.497Z,8.500000
2023-04-15T07:01:00.393Z,8.500000
2023-04-15T07:02:00.460Z,9.000000
2023-04-15T07:03:00.405Z,9.000000
2023-04-15T07:04:00.480Z,9.000000
2023-04-15T07:05:02.990Z,9.000000
2023-04-15T07:06:00.444Z,9.000000
2023-04-15T07:07:00.375Z,9.000000
2023-04-15T07:08:00.485Z,7.500000
2023-04-15T07:09:00.697Z,7.500000
2023-04-15T07:10:03.910Z,7.500000
2023-04-15T07:11:00.398Z,7.500000
2023-04-15T07:12:00.518Z,8.600000
2023-04-15T07:13:00.412Z,8.600000
2023-04-15T07:14:00.528Z,8.600000
2023-04-15T07:15:03.145Z,8.600000
2023-04-15T07:16:00.549Z,8.600000
2023-04-15T07:17:00.472Z,7.000000
2023-04-15T07:18:01.498Z,7.000000
2023-04-15T07:19:00.766Z,7.000000
2023-04-15T07:20:03.740Z,6.500000
2023-04-15T07:21:00.493Z,6.500000
2023-04-15T07:22:03.282Z,6.400000
2023-04-15T07:23:00.484Z,6.400000
2023-04-15T07:24:00.599Z,6.400000
2023-04-15T07:25:02.929Z,9.600000
2023-04-15T07:26:00.582Z,9.600000
2023-04-15T07:27:01.433Z,9.600000
2023-04-15T07:28:00.581Z,4.400000
2023-04-15T07:29:00.720Z,4.400000
2023-04-15T07:30:03.915Z,5.300000
2023-04-15T07:31:00.545Z,5.300000
2023-04-15T07:32:01.070Z,5.300000
2023-04-15T07:33:00.569Z,0.000000
2023-04-15T07:34:00.644Z,0.000000
2023-04-15T07:35:03.076Z,0.000000
2023-04-15T07:36:00.679Z,0.000000
2023-04-15T07:37:00.588Z,0.000000
2023-04-15T07:38:00.680Z,0.000000
2023-04-15T07:39:00.838Z,0.000000
2023-04-15T07:40:03.565Z,5.000000
2023-04-15T07:41:00.615Z,5.000000
2023-04-15T07:42:00.705Z,5.000000
2023-04-15T07:43:00.621Z,7.500000
2023-04-15T07:44:00.760Z,7.500000
2023-04-15T07:45:03.356Z,7.500000
2023-04-15T07:46:00.768Z,7.500000
2023-04-15T07:47:00.647Z,7.500000
2023-04-15T07:48:07.922Z,7.500000
2023-04-15T07:49:01.100Z,7.500000
2023-04-15T07:50:03.797Z,10.800000
2023-04-15T07:51:00.667Z,10.800000
2023-04-15T07:52:00.718Z,10.800000
2023-04-15T07:53:00.680Z,11.200000
2023-04-15T07:54:00.784Z,11.200000
2023-04-15T07:55:03.191Z,11.200000
2023-04-15T07:56:00.771Z,13.600000
2023-04-15T07:57:00.694Z,13.600000
2023-04-15T07:58:00.759Z,13.600000
2023-04-15T07:59:00.883Z,13.600000
2023-04-15T08:00:03.790Z,9.200000
2023-04-15T08:01:00.722Z,9.200000
2023-04-15T08:02:00.927Z,9.200000
2023-04-15T08:03:00.936Z,9.600000
2023-04-15T08:04:00.990Z,9.600000
2023-04-15T08:05:04.202Z,9.600000
2023-04-15T08:06:00.855Z,9.600000
2023-04-15T08:07:00.766Z,9.600000
2023-04-15T08:08:00.831Z,8.800000
2023-04-15T08:09:01.075Z,8.800000
2023-04-15T08:10:03.726Z,8.800000
2023-04-15T08:11:00.795Z,8.800000
2023-04-15T08:12:00.887Z,8.800000
2023-04-15T08:13:00.804Z,7.300000
2023-04-15T08:14:00.896Z,7.300000
2023-04-15T08:15:03.570Z,7.300000
2023-04-15T08:16:00.951Z,7.300000
2023-04-15T08:17:00.817Z,7.300000
2023-04-15T08:18:01.070Z,14.000000
2023-04-15T08:19:01.068Z,14.000000
2023-04-15T08:20:04.023Z,9.700000
2023-04-15T08:21:00.832Z,9.700000
2023-04-15T08:22:00.919Z,9.700000
2023-04-15T08:23:00.857Z,7.300000
2023-04-15T08:24:00.951Z,7.300000
2023-04-15T08:25:03.415Z,7.300000
2023-04-15T08:26:00.939Z,14.000000
2023-04-15T08:27:00.862Z,14.000000
2023-04-15T08:28:00.948Z,14.000000
2023-04-15T08:29:01.078Z,13.800000
2023-04-15T08:30:05.413Z,13.800000
2023-04-15T08:31:00.894Z,14.100000
2023-04-15T08:32:02.717Z,14.100000
2023-04-15T08:33:00.954Z,14.100000
2023-04-15T08:34:02.016Z,14.100000
2023-04-15T08:35:03.450Z,14.100000
2023-04-15T08:36:02.062Z,10.400000
2023-04-15T08:37:00.905Z,10.400000
2023-04-15T08:38:02.008Z,10.400000
2023-04-15T08:39:01.280Z,10.300000
2023-04-15T08:40:04.111Z,10.300000
2023-04-15T08:41:00.925Z,13.800000
2023-04-15T08:42:00.999Z,13.800000
2023-04-15T08:43:00.925Z,13.800000
2023-04-15T08:44:01.036Z,13.800000
2023-04-15T08:45:03.491Z,13.800000
2023-04-15T08:46:01.037Z,9.900000
2023-04-15T08:47:00.988Z,9.900000
2023-04-15T08:48:01.086Z,9.900000
2023-04-15T08:49:01.239Z,9.900000
2023-04-15T08:50:04.018Z,9.900000
2023-04-15T08:51:00.970Z,9.900000
2023-04-15T08:52:02.065Z,10.700000
2023-04-15T08:53:00.981Z,10.700000
2023-04-15T08:54:01.062Z,20.700000
2023-04-15T08:55:03.573Z,20.700000
2023-04-15T08:56:01.100Z,18.600000
2023-04-15T08:57:00.991Z,18.600000
2023-04-15T08:58:02.150Z,18.600000
2023-04-15T08:59:01.299Z,13.200000
2023-04-15T09:00:05.722Z,13.200000
2023-04-15T09:01:01.082Z,13.200000
2023-04-15T09:02:02.191Z,13.200000
2023-04-15T09:03:01.120Z,13.200000
2023-04-15T09:04:01.161Z,11.900000
2023-04-15T09:05:03.767Z,11.900000
2023-04-15T09:06:01.160Z,10.300000
2023-04-15T09:07:01.048Z,10.300000
2023-04-15T09:08:01.471Z,10.300000
2023-04-15T09:09:01.373Z,10.100000
2023-04-15T09:10:04.034Z,10.100000
2023-04-15T09:11:01.080Z,10.100000
2023-04-15T09:12:03.365Z,13.300000
2023-04-15T09:13:01.094Z,13.300000
2023-04-15T09:14:01.178Z,16.100000
2023-04-15T09:15:03.570Z,16.100000
2023-04-15T09:16:01.154Z,16.100000
2023-04-15T09:17:01.230Z,16.100000
2023-04-15T09:18:01.276Z,16.100000
2023-04-15T09:19:01.286Z,16.600000
2023-04-15T09:20:04.420Z,16.600000
2023-04-15T09:21:01.136Z,16.600000
2023-04-15T09:22:01.290Z,15.200000
2023-04-15T09:23:01.150Z,15.200000
2023-04-15T09:24:08.935Z,20.300000
2023-04-15T09:25:05.258Z,20.300000
2023-04-15T09:26:01.224Z,20.300000
2023-04-15T09:27:01.172Z,16.200000
2023-04-15T09:28:01.219Z,16.200000
2023-04-15T09:29:01.166Z,15.700000
2023-04-15T09:30:03.388Z,15.700000
2023-04-15T09:31:00.294Z,15.700000
2023-04-15T09:32:00.264Z,15.700000
2023-04-15T09:33:00.311Z,15.700000
2023-04-15T09:34:00.819Z,12.300000
2023-04-15T09:35:02.735Z,12.300000
2023-04-15T09:36:00.338Z,12.300000
2023-04-15T09:37:00.250Z,11.600000
2023-04-15T09:38:01.367Z,11.600000
2023-04-15T09:39:00.241Z,13.500000
2023-04-15T09:40:03.362Z,13.500000
2023-04-15T09:41:00.277Z,18.300000
2023-04-15T09:42:00.320Z,18.300000
2023-04-15T09:43:00.289Z,18.300000
2023-04-15T09:44:00.582Z,15.900000
2023-04-15T09:45:02.751Z,15.900000
2023-04-15T09:46:00.366Z,15.900000
2023-04-15T09:47:00.267Z,17.900000
2023-04-15T09:48:01.468Z,17.900000
2023-04-15T09:49:00.286Z,18.700000
2023-04-15T09:50:03.343Z,18.700000
2023-04-15T09:51:00.301Z,18.700000
2023-04-15T09:52:05.139Z,18.700000
2023-04-15T09:53:00.311Z,18.700000
2023-04-15T09:54:00.903Z,12.700000
2023-04-15T09:55:03.500Z,12.700000
2023-04-15T09:56:01.444Z,12.700000
2023-04-15T09:57:00.365Z,12.300000
2023-04-15T09:58:00.424Z,12.300000
2023-04-15T09:59:00.339Z,11.100000
2023-04-15T10:00:03.414Z,11.100000
2023-04-15T10:01:00.392Z,10.300000
2023-04-15T10:02:01.596Z,10.300000
2023-04-15T10:03:00.551Z,10.300000
2023-04-15T10:05:03.175Z,13.400000
2023-04-15T10:06:00.531Z,13.400000
2023-04-15T10:07:00.413Z,15.300000
2023-04-15T10:08:00.489Z,15.300000
2023-04-15T10:09:00.417Z,15.300000
2023-04-15T10:10:03.426Z,15.100000
2023-04-15T10:11:00.407Z,15.100000
2023-04-15T10:12:00.526Z,14.600000
2023-04-15T10:13:00.425Z,14.600000
2023-04-15T10:14:01.956Z,11.600000
2023-04-15T10:15:02.876Z,11.600000
2023-04-15T10:16:00.599Z,11.600000
2023-04-15T10:17:00.438Z,9.100000
2023-04-15T10:18:01.673Z,9.100000
2023-04-15T10:19:00.458Z,9.100000
2023-04-15T10:20:04.720Z,11.000000
2023-04-15T10:21:00.466Z,11.000000
2023-04-15T10:22:00.574Z,12.400000
2023-04-15T10:23:00.467Z,12.400000
2023-04-15T10:24:00.931Z,11.000000
2023-04-15T10:25:03.069Z,11.000000
2023-04-15T10:26:01.614Z,11.000000
2023-04-15T10:27:00.492Z,12.200000
2023-04-15T10:28:00.569Z,12.200000
2023-04-15T10:29:00.495Z,12.200000
2023-04-15T10:30:03.515Z,12.100000
2023-04-15T10:31:00.557Z,12.100000
2023-04-15T10:32:00.603Z,12.100000
2023-04-15T10:33:00.552Z,12.100000
2023-04-15T10:34:01.943Z,12.100000
2023-04-15T10:35:03.328Z,13.100000
2023-04-15T10:36:01.782Z,13.100000
2023-04-15T10:37:00.526Z,15.200000
2023-04-15T10:38:00.598Z,15.200000
2023-04-15T10:39:00.594Z,15.200000
2023-04-15T10:40:03.642Z,12.700000
2023-04-15T10:41:00.545Z,12.700000
2023-04-15T10:42:00.722Z,17.100000
2023-04-15T10:43:00.559Z,17.100000
2023-04-15T10:44:00.778Z,17.100000
2023-04-15T10:45:03.125Z,14.900000
2023-04-15T10:46:00.654Z,14.900000
2023-04-15T10:47:00.703Z,15.500000
2023-04-15T10:48:08.116Z,15.500000
2023-04-15T10:49:00.612Z,15.500000
2023-04-15T10:50:04.573Z,18.200000
2023-04-15T10:51:00.658Z,18.200000
2023-04-15T10:52:00.684Z,18.200000
2023-04-15T10:53:00.623Z,14.700000
2023-04-15T10:54:00.781Z,14.700000
2023-04-15T10:55:03.209Z,15.100000
2023-04-15T10:56:01.798Z,15.100000
2023-04-15T10:57:00.655Z,20.800000
2023-04-15T10:58:00.760Z,20.800000
2023-04-15T10:59:00.658Z,20.800000
2023-04-15T11:00:03.808Z,20.800000
2023-04-15T11:01:00.670Z,20.800000
2023-04-15T11:02:13.904Z,14.800000
2023-04-15T11:03:00.836Z,14.800000
2023-04-15T11:04:00.849Z,14.800000
2023-04-15T11:05:03.331Z,18.500000
2023-04-15T11:06:00.787Z,18.500000
2023-04-15T11:07:00.700Z,18.500000
2023-04-15T11:08:00.795Z,18.500000
2023-04-15T11:09:00.724Z,12.100000
2023-04-15T11:10:03.668Z,12.100000
2023-04-15T11:11:00.739Z,12.100000
2023-04-15T11:12:00.826Z,13.700000
2023-04-15T11:13:00.736Z,13.700000
2023-04-15T11:14:01.062Z,13.700000
2023-04-15T11:15:03.501Z,12.700000
2023-04-15T11:16:02.107Z,12.700000
2023-04-15T11:17:00.763Z,12.700000
2023-04-15T11:18:00.869Z,12.200000
2023-04-15T11:19:00.753Z,12.200000
2023-04-15T11:23:08.018Z,14.200000
2023-04-15T11:24:02.285Z,14.200000
2023-04-15T11:25:03.532Z,14.200000
2023-04-15T11:26:00.872Z,14.200000
2023-04-15T11:27:00.815Z,14.200000
2023-04-15T11:28:00.898Z,11.400000
2023-04-15T11:29:00.801Z,11.400000
2023-04-15T11:30:05.241Z,9.900000
2023-04-15T11:31:00.813Z,9.900000
2023-04-15T11:32:01.639Z,9.900000
2023-04-15T11:33:00.895Z,10.200000
2023-04-15T11:34:00.926Z,10.200000
2023-04-15T11:35:03.496Z,11.100000
2023-04-15T11:36:00.934Z,11.100000
2023-04-15T11:37:00.861Z,11.100000
2023-04-15T11:38:00.928Z,13.200000
2023-04-15T11:39:00.870Z,13.200000
2023-04-15T11:40:05.209Z,13.200000
2023-04-15T11:41:00.881Z,11.700000
2023-04-15T11:42:00.961Z,11.700000